sensor_id;sensor_type;location;lat;lon;timestamp;P1;durP1;ratioP1;P2;durP2;ratioP2
17596;SDS011;8917;50.942;6.946;2022-12-16T00:00:01;36.47;;;24.03;;
17596;SDS011;8917;50.942;6.946;2022-12-16T00:02:28;34.70;;;23.97;;
17596;SDS011;8917;50.942;6.946;2022-12-16T00:04:56;37.47;;;24.47;;
17596;SDS011;8917;50.942;6.946;2022-12-16T00:07:23;37.73;;;24.90;;
17596;SDS011;8917;50.942;6.946;2022-12-16T00:09:50;33.10;;;23.67;;
17596;SDS011;8917;50.942;6.946;2022-12-16T00:12:19;36.97;;;24.37;;
17596;SDS011;8917;50.942;6.946;2022-12-16T00:14:46;34.10;;;24.03;;
17596;SDS011;8917;50.942;6.946;2022-12-16T00:17:14;35.10;;;23.60;;
17596;SDS011;8917;50.942;6.946;2022-12-16T00:19:41;35.40;;;24.63;;
17596;SDS011;8917;50.942;6.946;2022-12-16T00:22:08;33.90;;;24.10;;
17596;SDS011;8917;50.942;6.946;2022-12-16T00:24:36;33.70;;;23.60;;
17596;SDS011;8917;50.942;6.946;2022-12-16T00:27:03;39.90;;;25.03;;
17596;SDS011;8917;50.942;6.946;2022-12-16T00:29:32;31.97;;;23.57;;
17596;SDS011;8917;50.942;6.946;2022-12-16T00:31:59;35.90;;;24.57;;
17596;SDS011;8917;50.942;6.946;2022-12-16T00:34:27;35.97;;;23.23;;
17596;SDS011;8917;50.942;6.946;2022-12-16T00:36:54;35.00;;;23.67;;
17596;SDS011;8917;50.942;6.946;2022-12-16T00:39:21;32.60;;;23.20;;
17596;SDS011;8917;50.942;6.946;2022-12-16T00:41:49;33.83;;;24.40;;
17596;SDS011;8917;50.942;6.946;2022-12-16T00:44:16;35.83;;;23.87;;
17596;SDS011;8917;50.942;6.946;2022-12-16T00:46:45;34.20;;;23.07;;
17596;SDS011;8917;50.942;6.946;2022-12-16T00:49:12;37.97;;;24.80;;
17596;SDS011;8917;50.942;6.946;2022-12-16T00:51:40;34.60;;;25.10;;
17596;SDS011;8917;50.942;6.946;2022-12-16T00:54:07;37.27;;;24.67;;
17596;SDS011;8917;50.942;6.946;2022-12-16T00:56:34;36.17;;;24.70;;
17596;SDS011;8917;50.942;6.946;2022-12-16T00:59:02;34.80;;;23.97;;
17596;SDS011;8917;50.942;6.946;2022-12-16T01:01:29;34.67;;;24.17;;
17596;SDS011;8917;50.942;6.946;2022-12-16T01:03:58;36.43;;;24.83;;
17596;SDS011;8917;50.942;6.946;2022-12-16T01:06:25;35.37;;;24.33;;
17596;SDS011;8917;50.942;6.946;2022-12-16T01:08:52;35.30;;;23.63;;
17596;SDS011;8917;50.942;6.946;2022-12-16T01:11:20;35.53;;;24.17;;
17596;SDS011;8917;50.942;6.946;2022-12-16T01:13:48;35.13;;;22.67;;
17596;SDS011;8917;50.942;6.946;2022-12-16T01:16:16;36.90;;;24.27;;
17596;SDS011;8917;50.942;6.946;2022-12-16T01:18:43;39.23;;;24.87;;
17596;SDS011;8917;50.942;6.946;2022-12-16T01:21:12;37.17;;;24.77;;
17596;SDS011;8917;50.942;6.946;2022-12-16T01:23:40;39.37;;;25.20;;
17596;SDS011;8917;50.942;6.946;2022-12-16T01:26:08;39.73;;;24.70;;
17596;SDS011;8917;50.942;6.946;2022-12-16T01:28:35;37.30;;;24.33;;
17596;SDS011;8917;50.942;6.946;2022-12-16T01:31:03;42.87;;;25.07;;
17596;SDS011;8917;50.942;6.946;2022-12-16T01:33:31;39.07;;;24.77;;
17596;SDS011;8917;50.942;6.946;2022-12-16T01:35:59;41.93;;;25.10;;
17596;SDS011;8917;50.942;6.946;2022-12-16T01:38:28;41.67;;;24.43;;
17596;SDS011;8917;50.942;6.946;2022-12-16T01:40:55;36.87;;;23.60;;
17596;SDS011;8917;50.942;6.946;2022-12-16T01:43:24;38.33;;;23.50;;
17596;SDS011;8917;50.942;6.946;2022-12-16T01:45:52;39.33;;;24.53;;
17596;SDS011;8917;50.942;6.946;2022-12-16T01:48:23;41.73;;;25.40;;
17596;SDS011;8917;50.942;6.946;2022-12-16T01:50:53;41.13;;;25.00;;
17596;SDS011;8917;50.942;6.946;2022-12-16T01:53:22;41.33;;;25.60;;
17596;SDS011;8917;50.942;6.946;2022-12-16T01:55:51;40.80;;;26.03;;
17596;SDS011;8917;50.942;6.946;2022-12-16T01:58:21;44.20;;;27.43;;
17596;SDS011;8917;50.942;6.946;2022-12-16T02:00:51;45.90;;;26.97;;
17596;SDS011;8917;50.942;6.946;2022-12-16T02:03:19;45.50;;;25.73;;
17596;SDS011;8917;50.942;6.946;2022-12-16T02:05:46;44.53;;;27.27;;
17596;SDS011;8917;50.942;6.946;2022-12-16T02:08:16;45.93;;;28.17;;
17596;SDS011;8917;50.942;6.946;2022-12-16T02:10:46;46.47;;;27.87;;
17596;SDS011;8917;50.942;6.946;2022-12-16T02:13:20;43.13;;;26.60;;
17596;SDS011;8917;50.942;6.946;2022-12-16T02:15:51;43.63;;;25.27;;
17596;SDS011;8917;50.942;6.946;2022-12-16T02:18:22;41.37;;;25.20;;
17596;SDS011;8917;50.942;6.946;2022-12-16T02:20:58;40.50;;;25.97;;
17596;SDS011;8917;50.942;6.946;2022-12-16T02:23:35;37.70;;;24.17;;
17596;SDS011;8917;50.942;6.946;2022-12-16T02:26:21;39.47;;;23.77;;
17596;SDS011;8917;50.942;6.946;2022-12-16T02:28:57;44.17;;;24.33;;
17596;SDS011;8917;50.942;6.946;2022-12-16T02:31:33;38.83;;;24.53;;
17596;SDS011;8917;50.942;6.946;2022-12-16T02:34:07;40.20;;;25.37;;
17596;SDS011;8917;50.942;6.946;2022-12-16T02:36:40;40.67;;;24.87;;
17596;SDS011;8917;50.942;6.946;2022-12-16T02:39:10;43.40;;;25.73;;
17596;SDS011;8917;50.942;6.946;2022-12-16T02:41:41;44.70;;;26.17;;
17596;SDS011;8917;50.942;6.946;2022-12-16T02:44:09;38.30;;;25.00;;
17596;SDS011;8917;50.942;6.946;2022-12-16T02:46:39;40.07;;;25.77;;
17596;SDS011;8917;50.942;6.946;2022-12-16T02:49:08;43.10;;;25.87;;
17596;SDS011;8917;50.942;6.946;2022-12-16T02:51:36;39.43;;;24.30;;
17596;SDS011;8917;50.942;6.946;2022-12-16T02:54:04;39.30;;;23.67;;
17596;SDS011;8917;50.942;6.946;2022-12-16T02:56:36;41.60;;;25.87;;
17596;SDS011;8917;50.942;6.946;2022-12-16T02:59:07;39.37;;;25.47;;
17596;SDS011;8917;50.942;6.946;2022-12-16T03:01:42;38.93;;;23.83;;
17596;SDS011;8917;50.942;6.946;2022-12-16T03:04:13;42.23;;;24.60;;
17596;SDS011;8917;50.942;6.946;2022-12-16T03:06:42;37.63;;;25.50;;
17596;SDS011;8917;50.942;6.946;2022-12-16T03:09:11;37.20;;;23.27;;
17596;SDS011;8917;50.942;6.946;2022-12-16T03:11:40;37.70;;;24.53;;
17596;SDS011;8917;50.942;6.946;2022-12-16T03:14:08;34.60;;;22.63;;
17596;SDS011;8917;50.942;6.946;2022-12-16T03:16:36;31.47;;;21.67;;
17596;SDS011;8917;50.942;6.946;2022-12-16T03:19:06;36.67;;;22.67;;
17596;SDS011;8917;50.942;6.946;2022-12-16T03:21:37;40.33;;;25.43;;
17596;SDS011;8917;50.942;6.946;2022-12-16T03:24:06;38.27;;;22.97;;
17596;SDS011;8917;50.942;6.946;2022-12-16T03:26:36;41.30;;;25.67;;
17596;SDS011;8917;50.942;6.946;2022-12-16T03:29:06;41.57;;;25.13;;
17596;SDS011;8917;50.942;6.946;2022-12-16T03:31:35;40.83;;;25.73;;
17596;SDS011;8917;50.942;6.946;2022-12-16T03:34:09;38.97;;;23.97;;
17596;SDS011;8917;50.942;6.946;2022-12-16T03:36:38;39.73;;;24.03;;
17596;SDS011;8917;50.942;6.946;2022-12-16T03:39:06;41.07;;;24.57;;
17596;SDS011;8917;50.942;6.946;2022-12-16T03:41:34;40.37;;;24.33;;
17596;SDS011;8917;50.942;6.946;2022-12-16T03:44:02;39.77;;;23.77;;
17596;SDS011;8917;50.942;6.946;2022-12-16T03:46:30;43.53;;;24.40;;
17596;SDS011;8917;50.942;6.946;2022-12-16T03:48:58;37.53;;;24.40;;
17596;SDS011;8917;50.942;6.946;2022-12-16T03:51:27;42.43;;;26.07;;
17596;SDS011;8917;50.942;6.946;2022-12-16T03:53:54;41.47;;;25.30;;
17596;SDS011;8917;50.942;6.946;2022-12-16T03:56:21;37.07;;;23.23;;
17596;SDS011;8917;50.942;6.946;2022-12-16T03:58:49;43.57;;;26.07;;
17596;SDS011;8917;50.942;6.946;2022-12-16T04:01:16;46.03;;;26.27;;
17596;SDS011;8917;50.942;6.946;2022-12-16T04:03:43;44.07;;;24.80;;
17596;SDS011;8917;50.942;6.946;2022-12-16T04:06:11;45.33;;;24.90;;
17596;SDS011;8917;50.942;6.946;2022-12-16T04:08:44;42.00;;;25.17;;
17596;SDS011;8917;50.942;6.946;2022-12-16T04:11:12;42.33;;;24.43;;
17596;SDS011;8917;50.942;6.946;2022-12-16T04:13:56;42.30;;;24.93;;
17596;SDS011;8917;50.942;6.946;2022-12-16T04:16:41;44.00;;;24.70;;
17596;SDS011;8917;50.942;6.946;2022-12-16T04:19:27;42.87;;;25.37;;
17596;SDS011;8917;50.942;6.946;2022-12-16T04:22:16;42.30;;;23.90;;
17596;SDS011;8917;50.942;6.946;2022-12-16T04:25:05;42.67;;;24.57;;
17596;SDS011;8917;50.942;6.946;2022-12-16T04:27:34;43.93;;;24.60;;
17596;SDS011;8917;50.942;6.946;2022-12-16T04:30:01;42.90;;;24.40;;
17596;SDS011;8917;50.942;6.946;2022-12-16T04:32:48;40.77;;;24.30;;
17596;SDS011;8917;50.942;6.946;2022-12-16T04:35:33;42.80;;;24.03;;
17596;SDS011;8917;50.942;6.946;2022-12-16T04:38:18;40.00;;;23.47;;
17596;SDS011;8917;50.942;6.946;2022-12-16T04:41:05;39.57;;;23.17;;
17596;SDS011;8917;50.942;6.946;2022-12-16T04:43:50;40.40;;;23.67;;
17596;SDS011;8917;50.942;6.946;2022-12-16T04:46:35;40.43;;;23.60;;
17596;SDS011;8917;50.942;6.946;2022-12-16T04:49:19;40.67;;;23.20;;
17596;SDS011;8917;50.942;6.946;2022-12-16T04:52:04;37.70;;;22.27;;
17596;SDS011;8917;50.942;6.946;2022-12-16T04:54:49;39.87;;;23.90;;
17596;SDS011;8917;50.942;6.946;2022-12-16T04:57:35;37.77;;;22.77;;
17596;SDS011;8917;50.942;6.946;2022-12-16T05:00:20;43.43;;;24.00;;
17596;SDS011;8917;50.942;6.946;2022-12-16T05:03:05;36.67;;;22.43;;
17596;SDS011;8917;50.942;6.946;2022-12-16T05:05:50;38.93;;;24.53;;
17596;SDS011;8917;50.942;6.946;2022-12-16T05:08:34;41.83;;;24.33;;
17596;SDS011;8917;50.942;6.946;2022-12-16T05:11:19;42.60;;;24.23;;
17596;SDS011;8917;50.942;6.946;2022-12-16T05:14:05;41.03;;;22.80;;
17596;SDS011;8917;50.942;6.946;2022-12-16T05:16:50;43.93;;;24.50;;
17596;SDS011;8917;50.942;6.946;2022-12-16T05:19:35;41.07;;;23.93;;
17596;SDS011;8917;50.942;6.946;2022-12-16T05:22:19;40.47;;;21.97;;
17596;SDS011;8917;50.942;6.946;2022-12-16T05:25:12;39.80;;;23.83;;
17596;SDS011;8917;50.942;6.946;2022-12-16T05:27:57;38.97;;;24.03;;
17596;SDS011;8917;50.942;6.946;2022-12-16T05:30:43;41.47;;;22.50;;
17596;SDS011;8917;50.942;6.946;2022-12-16T05:33:28;40.97;;;22.73;;
17596;SDS011;8917;50.942;6.946;2022-12-16T05:36:12;39.43;;;23.00;;
17596;SDS011;8917;50.942;6.946;2022-12-16T05:38:57;40.50;;;23.20;;
17596;SDS011;8917;50.942;6.946;2022-12-16T05:41:42;39.27;;;23.37;;
17596;SDS011;8917;50.942;6.946;2022-12-16T05:44:26;36.77;;;21.80;;
17596;SDS011;8917;50.942;6.946;2022-12-16T05:47:12;41.63;;;23.97;;
17596;SDS011;8917;50.942;6.946;2022-12-16T05:49:57;38.43;;;24.10;;
17596;SDS011;8917;50.942;6.946;2022-12-16T05:52:47;41.90;;;23.63;;
17596;SDS011;8917;50.942;6.946;2022-12-16T05:55:31;40.03;;;23.30;;
17596;SDS011;8917;50.942;6.946;2022-12-16T05:58:16;40.03;;;23.17;;
17596;SDS011;8917;50.942;6.946;2022-12-16T06:01:01;41.63;;;23.30;;
17596;SDS011;8917;50.942;6.946;2022-12-16T06:03:47;42.00;;;24.83;;
17596;SDS011;8917;50.942;6.946;2022-12-16T06:06:32;39.40;;;22.83;;
17596;SDS011;8917;50.942;6.946;2022-12-16T06:09:16;42.60;;;24.73;;
17596;SDS011;8917;50.942;6.946;2022-12-16T06:12:01;42.60;;;24.03;;
17596;SDS011;8917;50.942;6.946;2022-12-16T06:14:46;44.20;;;24.67;;
17596;SDS011;8917;50.942;6.946;2022-12-16T06:17:30;42.80;;;23.60;;
17596;SDS011;8917;50.942;6.946;2022-12-16T06:20:17;46.17;;;25.37;;
17596;SDS011;8917;50.942;6.946;2022-12-16T06:23:01;49.37;;;27.83;;
17596;SDS011;8917;50.942;6.946;2022-12-16T06:25:46;50.83;;;25.93;;
17596;SDS011;8917;50.942;6.946;2022-12-16T06:28:30;45.20;;;24.83;;
17596;SDS011;8917;50.942;6.946;2022-12-16T06:31:15;46.03;;;25.57;;
17596;SDS011;8917;50.942;6.946;2022-12-16T06:34:00;44.83;;;25.93;;
17596;SDS011;8917;50.942;6.946;2022-12-16T06:36:46;41.93;;;24.57;;
17596;SDS011;8917;50.942;6.946;2022-12-16T06:39:31;41.20;;;24.63;;
17596;SDS011;8917;50.942;6.946;2022-12-16T06:42:15;42.50;;;25.50;;
17596;SDS011;8917;50.942;6.946;2022-12-16T06:45:00;41.27;;;23.27;;
17596;SDS011;8917;50.942;6.946;2022-12-16T06:47:45;44.47;;;24.20;;
17596;SDS011;8917;50.942;6.946;2022-12-16T06:50:29;43.13;;;24.60;;
17596;SDS011;8917;50.942;6.946;2022-12-16T06:53:15;42.30;;;24.10;;
17596;SDS011;8917;50.942;6.946;2022-12-16T06:56:00;45.77;;;25.53;;
17596;SDS011;8917;50.942;6.946;2022-12-16T06:58:45;41.07;;;23.73;;
17596;SDS011;8917;50.942;6.946;2022-12-16T07:01:29;43.47;;;25.00;;
17596;SDS011;8917;50.942;6.946;2022-12-16T07:04:14;41.07;;;24.23;;
17596;SDS011;8917;50.942;6.946;2022-12-16T07:06:59;41.97;;;23.83;;
17596;SDS011;8917;50.942;6.946;2022-12-16T07:09:45;44.40;;;24.50;;
17596;SDS011;8917;50.942;6.946;2022-12-16T07:12:29;43.07;;;23.93;;
17596;SDS011;8917;50.942;6.946;2022-12-16T07:15:14;43.53;;;24.47;;
17596;SDS011;8917;50.942;6.946;2022-12-16T07:18:07;41.87;;;23.40;;
17596;SDS011;8917;50.942;6.946;2022-12-16T07:20:51;44.13;;;25.03;;
17596;SDS011;8917;50.942;6.946;2022-12-16T07:23:36;41.13;;;23.60;;
17596;SDS011;8917;50.942;6.946;2022-12-16T07:26:22;43.93;;;25.13;;
17596;SDS011;8917;50.942;6.946;2022-12-16T07:29:07;41.17;;;24.23;;
17596;SDS011;8917;50.942;6.946;2022-12-16T07:31:51;47.87;;;24.80;;
17596;SDS011;8917;50.942;6.946;2022-12-16T07:34:36;46.33;;;25.30;;
17596;SDS011;8917;50.942;6.946;2022-12-16T07:37:20;40.80;;;24.03;;
17596;SDS011;8917;50.942;6.946;2022-12-16T07:40:05;44.73;;;23.63;;
17596;SDS011;8917;50.942;6.946;2022-12-16T07:42:52;43.83;;;25.57;;
17596;SDS011;8917;50.942;6.946;2022-12-16T07:45:37;38.13;;;24.40;;
17596;SDS011;8917;50.942;6.946;2022-12-16T07:48:21;43.17;;;24.63;;
17596;SDS011;8917;50.942;6.946;2022-12-16T07:51:06;43.57;;;24.83;;
17596;SDS011;8917;50.942;6.946;2022-12-16T07:53:51;43.77;;;24.77;;
17596;SDS011;8917;50.942;6.946;2022-12-16T07:56:35;44.17;;;24.47;;
17596;SDS011;8917;50.942;6.946;2022-12-16T07:59:21;42.93;;;25.33;;
17596;SDS011;8917;50.942;6.946;2022-12-16T08:02:07;45.97;;;25.33;;
17596;SDS011;8917;50.942;6.946;2022-12-16T08:04:52;50.17;;;27.03;;
17596;SDS011;8917;50.942;6.946;2022-12-16T08:07:38;43.90;;;24.83;;
17596;SDS011;8917;50.942;6.946;2022-12-16T08:10:23;43.37;;;25.37;;
17596;SDS011;8917;50.942;6.946;2022-12-16T08:13:07;43.23;;;25.07;;
17596;SDS011;8917;50.942;6.946;2022-12-16T08:15:54;44.50;;;25.03;;
17596;SDS011;8917;50.942;6.946;2022-12-16T08:18:39;42.70;;;25.60;;
17596;SDS011;8917;50.942;6.946;2022-12-16T08:21:23;42.70;;;24.17;;
17596;SDS011;8917;50.942;6.946;2022-12-16T08:24:08;41.57;;;25.03;;
17596;SDS011;8917;50.942;6.946;2022-12-16T08:26:53;46.53;;;25.77;;
17596;SDS011;8917;50.942;6.946;2022-12-16T08:29:37;48.77;;;26.10;;
17596;SDS011;8917;50.942;6.946;2022-12-16T08:32:23;46.03;;;26.10;;
17596;SDS011;8917;50.942;6.946;2022-12-16T08:35:08;46.57;;;26.67;;
17596;SDS011;8917;50.942;6.946;2022-12-16T08:37:53;49.63;;;26.33;;
17596;SDS011;8917;50.942;6.946;2022-12-16T08:40:34;43.53;;;25.77;;
17596;SDS011;8917;50.942;6.946;2022-12-16T08:43:19;50.23;;;26.87;;
17596;SDS011;8917;50.942;6.946;2022-12-16T08:46:03;46.30;;;26.10;;
17596;SDS011;8917;50.942;6.946;2022-12-16T08:48:49;43.37;;;25.73;;
17596;SDS011;8917;50.942;6.946;2022-12-16T08:51:34;47.97;;;26.33;;
17596;SDS011;8917;50.942;6.946;2022-12-16T08:54:19;51.90;;;28.40;;
17596;SDS011;8917;50.942;6.946;2022-12-16T08:57:06;45.93;;;27.60;;
17596;SDS011;8917;50.942;6.946;2022-12-16T08:59:51;44.83;;;27.30;;
17596;SDS011;8917;50.942;6.946;2022-12-16T09:02:36;48.23;;;27.93;;
17596;SDS011;8917;50.942;6.946;2022-12-16T09:05:22;52.77;;;28.73;;
17596;SDS011;8917;50.942;6.946;2022-12-16T09:08:06;49.10;;;28.33;;
17596;SDS011;8917;50.942;6.946;2022-12-16T09:10:51;52.87;;;29.50;;
17596;SDS011;8917;50.942;6.946;2022-12-16T09:13:36;58.90;;;30.07;;
17596;SDS011;8917;50.942;6.946;2022-12-16T09:16:20;50.17;;;28.37;;
17596;SDS011;8917;50.942;6.946;2022-12-16T09:19:05;48.67;;;28.43;;
17596;SDS011;8917;50.942;6.946;2022-12-16T09:21:51;54.53;;;28.93;;
17596;SDS011;8917;50.942;6.946;2022-12-16T09:24:36;51.20;;;29.07;;
17596;SDS011;8917;50.942;6.946;2022-12-16T09:27:20;48.77;;;28.60;;
17596;SDS011;8917;50.942;6.946;2022-12-16T09:30:06;48.53;;;29.20;;
17596;SDS011;8917;50.942;6.946;2022-12-16T09:32:50;52.60;;;28.93;;
17596;SDS011;8917;50.942;6.946;2022-12-16T09:35:35;49.03;;;27.03;;
17596;SDS011;8917;50.942;6.946;2022-12-16T09:38:21;49.73;;;28.67;;
17596;SDS011;8917;50.942;6.946;2022-12-16T09:41:18;56.20;;;28.87;;
17596;SDS011;8917;50.942;6.946;2022-12-16T09:44:05;51.80;;;28.60;;
17596;SDS011;8917;50.942;6.946;2022-12-16T09:46:54;52.40;;;28.77;;
17596;SDS011;8917;50.942;6.946;2022-12-16T09:49:44;53.13;;;30.40;;
17596;SDS011;8917;50.942;6.946;2022-12-16T09:52:30;53.30;;;27.03;;
17596;SDS011;8917;50.942;6.946;2022-12-16T09:55:19;52.43;;;28.40;;
17596;SDS011;8917;50.942;6.946;2022-12-16T09:58:06;51.50;;;28.87;;
17596;SDS011;8917;50.942;6.946;2022-12-16T10:00:51;52.27;;;27.27;;
17596;SDS011;8917;50.942;6.946;2022-12-16T10:03:37;51.40;;;28.50;;
17596;SDS011;8917;50.942;6.946;2022-12-16T10:06:26;51.43;;;28.87;;
17596;SDS011;8917;50.942;6.946;2022-12-16T10:09:12;59.60;;;27.47;;
17596;SDS011;8917;50.942;6.946;2022-12-16T10:12:02;44.87;;;26.10;;
17596;SDS011;8917;50.942;6.946;2022-12-16T10:14:50;46.80;;;26.90;;
17596;SDS011;8917;50.942;6.946;2022-12-16T10:17:40;49.70;;;28.13;;
17596;SDS011;8917;50.942;6.946;2022-12-16T10:20:28;49.17;;;29.70;;
17596;SDS011;8917;50.942;6.946;2022-12-16T10:23:14;49.60;;;27.90;;
17596;SDS011;8917;50.942;6.946;2022-12-16T10:26:01;49.97;;;27.57;;
17596;SDS011;8917;50.942;6.946;2022-12-16T10:28:50;48.17;;;27.87;;
17596;SDS011;8917;50.942;6.946;2022-12-16T10:31:36;46.33;;;26.87;;
17596;SDS011;8917;50.942;6.946;2022-12-16T10:34:24;57.90;;;30.67;;
17596;SDS011;8917;50.942;6.946;2022-12-16T10:37:09;51.27;;;30.93;;
17596;SDS011;8917;50.942;6.946;2022-12-16T10:39:56;50.77;;;31.60;;
17596;SDS011;8917;50.942;6.946;2022-12-16T10:42:43;50.07;;;31.17;;
17596;SDS011;8917;50.942;6.946;2022-12-16T10:45:33;50.17;;;29.63;;
17596;SDS011;8917;50.942;6.946;2022-12-16T10:48:21;54.57;;;31.57;;
17596;SDS011;8917;50.942;6.946;2022-12-16T10:51:10;52.63;;;29.90;;
17596;SDS011;8917;50.942;6.946;2022-12-16T10:53:56;46.43;;;29.00;;
17596;SDS011;8917;50.942;6.946;2022-12-16T10:56:48;48.50;;;29.43;;
17596;SDS011;8917;50.942;6.946;2022-12-16T10:59:35;45.23;;;29.93;;
17596;SDS011;8917;50.942;6.946;2022-12-16T11:02:22;51.77;;;28.07;;
17596;SDS011;8917;50.942;6.946;2022-12-16T11:05:27;51.47;;;30.03;;
17596;SDS011;8917;50.942;6.946;2022-12-16T11:08:21;50.50;;;30.73;;
17596;SDS011;8917;50.942;6.946;2022-12-16T11:11:10;55.33;;;31.17;;
17596;SDS011;8917;50.942;6.946;2022-12-16T11:14:07;53.60;;;32.30;;
17596;SDS011;8917;50.942;6.946;2022-12-16T11:17:02;48.23;;;29.73;;
17596;SDS011;8917;50.942;6.946;2022-12-16T11:20:06;48.43;;;27.80;;
17596;SDS011;8917;50.942;6.946;2022-12-16T11:23:05;42.17;;;26.53;;
17596;SDS011;8917;50.942;6.946;2022-12-16T11:26:02;40.87;;;25.70;;
17596;SDS011;8917;50.942;6.946;2022-12-16T11:28:52;42.83;;;27.67;;
17596;SDS011;8917;50.942;6.946;2022-12-16T11:31:46;41.97;;;25.77;;
17596;SDS011;8917;50.942;6.946;2022-12-16T11:34:32;43.73;;;27.30;;
17596;SDS011;8917;50.942;6.946;2022-12-16T11:37:18;45.80;;;27.43;;
17596;SDS011;8917;50.942;6.946;2022-12-16T11:40:05;45.47;;;31.57;;
17596;SDS011;8917;50.942;6.946;2022-12-16T11:42:51;42.10;;;27.83;;
17596;SDS011;8917;50.942;6.946;2022-12-16T11:45:35;44.77;;;27.90;;
17596;SDS011;8917;50.942;6.946;2022-12-16T11:48:21;45.40;;;27.00;;
17596;SDS011;8917;50.942;6.946;2022-12-16T11:51:10;44.13;;;27.13;;
17596;SDS011;8917;50.942;6.946;2022-12-16T11:54:02;44.37;;;29.03;;
17596;SDS011;8917;50.942;6.946;2022-12-16T11:56:51;45.53;;;28.53;;
17596;SDS011;8917;50.942;6.946;2022-12-16T11:59:37;51.23;;;30.20;;
17596;SDS011;8917;50.942;6.946;2022-12-16T12:02:24;48.40;;;29.27;;
17596;SDS011;8917;50.942;6.946;2022-12-16T12:05:12;46.63;;;28.73;;
17596;SDS011;8917;50.942;6.946;2022-12-16T12:07:57;52.50;;;32.20;;
17596;SDS011;8917;50.942;6.946;2022-12-16T12:10:50;48.47;;;31.93;;
17596;SDS011;8917;50.942;6.946;2022-12-16T12:13:42;50.40;;;31.70;;
17596;SDS011;8917;50.942;6.946;2022-12-16T12:16:32;48.37;;;31.70;;
17596;SDS011;8917;50.942;6.946;2022-12-16T12:19:19;49.77;;;29.77;;
17596;SDS011;8917;50.942;6.946;2022-12-16T12:22:08;43.83;;;27.93;;
17596;SDS011;8917;50.942;6.946;2022-12-16T12:24:56;46.23;;;29.33;;
17596;SDS011;8917;50.942;6.946;2022-12-16T12:27:46;44.33;;;28.00;;
17596;SDS011;8917;50.942;6.946;2022-12-16T12:30:47;44.10;;;28.00;;
17596;SDS011;8917;50.942;6.946;2022-12-16T12:33:36;46.00;;;26.30;;
17596;SDS011;8917;50.942;6.946;2022-12-16T12:36:25;45.90;;;27.97;;
17596;SDS011;8917;50.942;6.946;2022-12-16T12:39:13;43.43;;;27.00;;
17596;SDS011;8917;50.942;6.946;2022-12-16T12:42:13;44.00;;;27.07;;
17596;SDS011;8917;50.942;6.946;2022-12-16T12:45:05;38.27;;;26.50;;
17596;SDS011;8917;50.942;6.946;2022-12-16T12:47:59;46.20;;;30.70;;
17596;SDS011;8917;50.942;6.946;2022-12-16T12:50:48;39.07;;;25.80;;
17596;SDS011;8917;50.942;6.946;2022-12-16T12:53:38;37.20;;;26.47;;
17596;SDS011;8917;50.942;6.946;2022-12-16T12:56:29;36.77;;;26.23;;
17596;SDS011;8917;50.942;6.946;2022-12-16T12:59:17;36.77;;;25.80;;
17596;SDS011;8917;50.942;6.946;2022-12-16T13:02:05;36.37;;;25.07;;
17596;SDS011;8917;50.942;6.946;2022-12-16T13:04:55;34.50;;;24.10;;
17596;SDS011;8917;50.942;6.946;2022-12-16T13:07:40;36.10;;;24.77;;
17596;SDS011;8917;50.942;6.946;2022-12-16T13:10:30;37.23;;;22.87;;
17596;SDS011;8917;50.942;6.946;2022-12-16T13:13:20;41.83;;;24.23;;
17596;SDS011;8917;50.942;6.946;2022-12-16T13:16:08;41.70;;;24.73;;
17596;SDS011;8917;50.942;6.946;2022-12-16T13:19:07;40.47;;;26.23;;
17596;SDS011;8917;50.942;6.946;2022-12-16T13:22:25;45.93;;;31.77;;
17596;SDS011;8917;50.942;6.946;2022-12-16T13:25:24;45.37;;;27.40;;
17596;SDS011;8917;50.942;6.946;2022-12-16T13:28:18;41.37;;;25.70;;
17596;SDS011;8917;50.942;6.946;2022-12-16T13:31:03;42.63;;;25.53;;
17596;SDS011;8917;50.942;6.946;2022-12-16T13:33:49;43.63;;;25.13;;
17596;SDS011;8917;50.942;6.946;2022-12-16T13:36:35;45.53;;;25.10;;
17596;SDS011;8917;50.942;6.946;2022-12-16T13:39:22;38.87;;;23.63;;
17596;SDS011;8917;50.942;6.946;2022-12-16T13:45:22;36.63;;;22.30;;
17596;SDS011;8917;50.942;6.946;2022-12-16T13:48:24;36.63;;;23.20;;
17596;SDS011;8917;50.942;6.946;2022-12-16T13:51:14;37.17;;;22.20;;
17596;SDS011;8917;50.942;6.946;2022-12-16T13:54:38;36.63;;;20.67;;
17596;SDS011;8917;50.942;6.946;2022-12-16T13:57:24;38.50;;;21.50;;
17596;SDS011;8917;50.942;6.946;2022-12-16T14:00:15;41.67;;;25.17;;
17596;SDS011;8917;50.942;6.946;2022-12-16T14:03:00;39.87;;;25.20;;
17596;SDS011;8917;50.942;6.946;2022-12-16T14:05:58;33.17;;;22.43;;
17596;SDS011;8917;50.942;6.946;2022-12-16T14:08:44;35.73;;;22.87;;
17596;SDS011;8917;50.942;6.946;2022-12-16T14:11:33;38.83;;;23.90;;
17596;SDS011;8917;50.942;6.946;2022-12-16T14:14:20;33.87;;;21.67;;
17596;SDS011;8917;50.942;6.946;2022-12-16T14:17:09;36.93;;;24.10;;
17596;SDS011;8917;50.942;6.946;2022-12-16T14:20:02;38.37;;;23.87;;
17596;SDS011;8917;50.942;6.946;2022-12-16T14:22:50;37.27;;;24.40;;
17596;SDS011;8917;50.942;6.946;2022-12-16T14:25:43;42.67;;;25.73;;
17596;SDS011;8917;50.942;6.946;2022-12-16T14:28:30;42.73;;;25.07;;
17596;SDS011;8917;50.942;6.946;2022-12-16T14:31:17;44.00;;;25.67;;
17596;SDS011;8917;50.942;6.946;2022-12-16T14:34:02;43.50;;;24.53;;
17596;SDS011;8917;50.942;6.946;2022-12-16T14:36:47;43.80;;;25.47;;
17596;SDS011;8917;50.942;6.946;2022-12-16T14:39:35;43.17;;;24.10;;
17596;SDS011;8917;50.942;6.946;2022-12-16T14:42:21;47.70;;;26.53;;
17596;SDS011;8917;50.942;6.946;2022-12-16T14:45:19;39.60;;;25.27;;
17596;SDS011;8917;50.942;6.946;2022-12-16T14:48:12;37.13;;;24.17;;
17596;SDS011;8917;50.942;6.946;2022-12-16T14:54:07;39.23;;;23.00;;
17596;SDS011;8917;50.942;6.946;2022-12-16T14:56:55;41.77;;;24.63;;
17596;SDS011;8917;50.942;6.946;2022-12-16T14:59:40;41.07;;;25.37;;
17596;SDS011;8917;50.942;6.946;2022-12-16T15:02:27;38.57;;;25.17;;
17596;SDS011;8917;50.942;6.946;2022-12-16T15:05:14;43.30;;;25.47;;
17596;SDS011;8917;50.942;6.946;2022-12-16T15:07:59;35.80;;;23.73;;
17596;SDS011;8917;50.942;6.946;2022-12-16T15:10:44;41.90;;;23.90;;
17596;SDS011;8917;50.942;6.946;2022-12-16T15:13:29;40.27;;;24.07;;
17596;SDS011;8917;50.942;6.946;2022-12-16T15:16:15;40.53;;;24.07;;
17596;SDS011;8917;50.942;6.946;2022-12-16T15:19:04;42.03;;;24.07;;
17596;SDS011;8917;50.942;6.946;2022-12-16T15:21:49;41.97;;;23.70;;
17596;SDS011;8917;50.942;6.946;2022-12-16T15:24:36;44.20;;;23.13;;
17596;SDS011;8917;50.942;6.946;2022-12-16T15:27:22;42.83;;;23.17;;
17596;SDS011;8917;50.942;6.946;2022-12-16T15:33:11;41.73;;;21.47;;
17596;SDS011;8917;50.942;6.946;2022-12-16T15:36:01;42.13;;;23.47;;
17596;SDS011;8917;50.942;6.946;2022-12-16T15:38:46;40.73;;;22.63;;
17596;SDS011;8917;50.942;6.946;2022-12-16T15:41:31;43.47;;;23.50;;
17596;SDS011;8917;50.942;6.946;2022-12-16T15:44:16;47.00;;;22.83;;
17596;SDS011;8917;50.942;6.946;2022-12-16T15:47:02;42.43;;;22.80;;
17596;SDS011;8917;50.942;6.946;2022-12-16T15:49:47;46.20;;;24.10;;
17596;SDS011;8917;50.942;6.946;2022-12-16T15:52:34;44.23;;;23.67;;
17596;SDS011;8917;50.942;6.946;2022-12-16T15:55:21;39.40;;;21.17;;
17596;SDS011;8917;50.942;6.946;2022-12-16T15:58:10;32.07;;;18.60;;
17596;SDS011;8917;50.942;6.946;2022-12-16T16:00:56;38.63;;;20.33;;
17596;SDS011;8917;50.942;6.946;2022-12-16T16:03:42;39.00;;;20.83;;
17596;SDS011;8917;50.942;6.946;2022-12-16T16:06:31;39.27;;;20.63;;
17596;SDS011;8917;50.942;6.946;2022-12-16T16:09:22;42.03;;;21.20;;